Time;durP1;ratioP1;P1;durP2;ratioP2;P2;SDS_P1;SDS_P2;PMS_P1;PMS_P2;Temp;Humidity;BMP_temperature;BMP_pressure;BME280_temperature;BME280_humidity;BME280_pressure;Samples;Min_cycle;Max_cycle;Signal;HPM_P1;HPM_P2
2024/02/27 00:02:26;;;;;;;25.70;21.67;;;5.80;99.90;;;;;;5056301;28;20459;-63
2024/02/27 00:04:53;;;;;;;24.73;21.50;;;5.70;99.90;;;;;;5056465;28;20462;-63
2024/02/27 00:07:23;;;;;;;27.30;22.40;;;5.70;99.90;;;;;;5056398;28;20466;-63
2024/02/27 00:09:50;;;;;;;25.93;22.03;;;5.70;99.90;;;;;;5056580;28;20462;-62
2024/02/27 00:12:21;;;;;;;27.20;21.83;;;5.70;99.90;;;;;;5056277;28;20467;-63
2024/02/27 00:14:48;;;;;;;25.00;21.70;;;5.70;99.90;;;;;;5056146;28;20940;-62
2024/02/27 00:17:16;;;;;;;27.37;22.97;;;5.70;99.90;;;;;;5056804;28;20526;-63
2024/02/27 00:19:43;;;;;;;27.53;23.80;;;5.70;99.90;;;;;;5056722;28;20462;-63
2024/02/27 00:22:10;;;;;;;26.20;22.33;;;5.60;99.90;;;;;;5055751;28;20498;-63
2024/02/27 00:24:38;;;;;;;29.10;22.17;;;5.60;1.00;;;;;;5055858;28;20497;-63
2024/02/27 00:27:06;;;;;;;32.50;24.57;;;5.60;1.00;;;;;;5056019;28;20458;-63
2024/02/27 00:29:34;;;;;;;30.93;24.27;;;5.60;1.00;;;;;;5056248;28;20965;-63
2024/02/27 00:32:02;;;;;;;27.67;21.47;;;5.60;1.00;;;;;;5056203;28;20463;-63
2024/02/27 00:34:29;;;;;;;26.63;22.57;;;5.60;1.00;;;;;;5055926;28;20800;-63
2024/02/27 00:36:56;;;;;;;27.40;23.97;;;5.60;1.00;;;;;;5055980;28;20808;-63
2024/02/27 00:39:23;;;;;;;30.60;24.10;;;5.60;1.00;;;;;;5056092;28;20761;-63
2024/02/27 00:41:54;;;;;;;28.00;22.47;;;5.60;1.00;;;;;;5056196;28;20511;-63
2024/02/27 00:44:21;;;;;;;26.00;22.20;;;5.60;1.00;;;;;;5055404;28;20494;-63
2024/02/27 00:46:50;;;;;;;27.97;22.77;;;5.50;1.00;;;;;;5055966;28;20908;-63
2024/02/27 00:49:17;;;;;;;29.33;24.30;;;5.50;1.00;;;;;;5055635;28;20483;-63
2024/02/27 00:51:44;;;;;;;28.37;24.87;;;5.50;1.00;;;;;;5055092;28;20481;-63
2024/02/27 00:54:12;;;;;;;27.03;24.13;;;5.50;6.70;;;;;;5055302;28;20478;-63
2024/02/27 00:56:39;;;;;;;29.97;23.30;;;5.50;99.90;;;;;;5055561;28;20848;-63
2024/02/27 00:59:06;;;;;;;30.73;25.47;;;5.60;99.90;;;;;;5055571;28;20746;-63
2024/02/27 01:01:34;;;;;;;29.57;25.53;;;5.50;22.00;;;;;;5055161;28;20498;-63
2024/02/27 01:04:03;;;;;;;27.40;23.37;;;5.50;99.90;;;;;;5055632;28;20494;-63
2024/02/27 01:06:30;;;;;;;31.80;26.53;;;5.60;97.80;;;;;;5055257;28;20467;-63
2024/02/27 01:08:57;;;;;;;33.33;26.60;;;5.50;73.00;;;;;;5055462;28;20492;-63
2024/02/27 01:11:25;;;;;;;31.87;24.83;;;5.50;96.50;;;;;;5055472;28;20523;-63
2024/02/27 01:13:52;;;;;;;29.73;25.67;;;5.50;94.20;;;;;;5055543;28;20506;-63
2024/02/27 01:16:20;;;;;;;30.80;23.70;;;5.50;99.90;;;;;;5055464;28;20508;-63
2024/02/27 01:18:48;;;;;;;28.40;24.37;;;5.50;1.00;;;;;;5055417;28;20462;-63
2024/02/27 01:21:17;;;;;;;33.87;24.53;;;5.50;1.00;;;;;;5055504;28;20462;-63
2024/02/27 01:23:44;;;;;;;29.10;23.50;;;5.50;1.00;;;;;;5055298;28;20496;-62
2024/02/27 01:26:11;;;;;;;31.20;24.33;;;5.50;1.00;;;;;;5055008;28;20837;-62
2024/02/27 01:28:39;;;;;;;31.33;25.20;;;5.40;1.00;;;;;;5055459;28;20463;-63
2024/02/27 01:31:06;;;;;;;28.80;23.90;;;5.40;1.00;;;;;;5055126;28;20455;-62
2024/02/27 01:33:33;;;;;;;29.73;24.50;;;5.50;1.00;;;;;;5055548;28;20494;-63
2024/02/27 01:36:01;;;;;;;28.03;22.97;;;5.40;1.00;;;;;;5055296;28;20462;-62
2024/02/27 01:38:30;;;;;;;30.40;24.10;;;5.40;1.00;;;;;;5054795;28;20463;-62
2024/02/27 01:40:57;;;;;;;29.50;23.60;;;5.40;1.00;;;;;;5055033;28;20882;-63
2024/02/27 01:43:24;;;;;;;29.67;23.47;;;5.40;1.00;;;;;;5055022;28;20851;-62
2024/02/27 01:46:07;;;;;;;28.53;23.57;;;5.40;1.00;;;;;;5055085;28;20545;-62
2024/02/27 01:48:34;;;;;;;31.43;24.17;;;5.40;1.00;;;;;;5054679;28;20548;-62
2024/02/27 01:51:02;;;;;;;28.73;23.87;;;5.40;1.00;;;;;;5054949;28;20772;-63
2024/02/27 01:53:31;;;;;;;27.30;22.43;;;5.40;1.00;;;;;;5054578;28;20503;-63
2024/02/27 01:56:00;;;;;;;25.60;21.93;;;5.40;99.90;;;;;;5055222;28;20462;-62
2024/02/27 01:58:27;;;;;;;27.70;23.60;;;5.30;99.90;;;;;;5054678;28;20462;-62
2024/02/27 02:00:54;;;;;;;33.50;24.20;;;5.30;99.90;;;;;;5054631;28;20944;-62
2024/02/27 02:03:24;;;;;;;29.63;23.30;;;5.30;99.90;;;;;;5053601;28;20500;-62
2024/02/27 02:05:51;;;;;;;27.80;24.03;;;5.40;99.90;;;;;;5054836;28;20457;-62
2024/02/27 02:08:19;;;;;;;28.73;23.03;;;5.30;99.90;;;;;;5054593;28;20810;-63
2024/02/27 02:10:48;;;;;;;31.17;25.93;;;5.30;99.90;;;;;;5054330;28;20462;-62
2024/02/27 02:13:15;;;;;;;29.57;24.67;;;5.30;99.90;;;;;;5054358;28;20454;-62
2024/02/27 02:15:43;;;;;;;32.53;26.13;;;5.30;1.00;;;;;;5054608;28;20459;-62
2024/02/27 02:18:10;;;;;;;34.90;25.80;;;5.30;1.00;;;;;;5054044;28;20466;-62
2024/02/27 02:20:39;;;;;;;31.13;25.50;;;5.30;1.00;;;;;;5139552;27;20479;-62
2024/02/27 02:23:07;;;;;;;30.67;24.13;;;5.30;1.00;;;;;;5157384;27;20454;-62
2024/02/27 02:25:35;;;;;;;33.70;25.30;;;5.30;1.00;;;;;;5158072;27;20504;-62
2024/02/27 02:28:02;;;;;;;30.93;24.70;;;5.20;99.90;;;;;;5119642;27;20886;-62
2024/02/27 02:30:29;;;;;;;29.87;25.00;;;5.20;99.90;;;;;;5083699;27;20450;-62
2024/02/27 02:32:57;;;;;;;31.50;26.33;;;5.20;1.00;;;;;;5102052;27;20445;-63
2024/02/27 02:35:24;;;;;;;31.30;25.50;;;5.20;99.90;;;;;;5070236;27;20919;-63
2024/02/27 02:37:53;;;;;;;28.13;23.47;;;5.20;1.00;;;;;;5050357;27;20750;-62
2024/02/27 02:40:21;;;;;;;29.27;24.43;;;5.20;1.00;;;;;;5032267;28;20459;-63
2024/02/27 02:42:48;;;;;;;32.93;25.87;;;5.20;1.00;;;;;;5078111;27;20444;-62
2024/02/27 02:45:16;;;;;;;34.90;26.63;;;5.30;1.00;;;;;;5123187;27;20572;-63
2024/02/27 02:47:43;;;;;;;30.87;24.40;;;5.20;99.90;;;;;;5157296;27;20563;-63
2024/02/27 02:50:11;;;;;;;31.67;24.67;;;5.30;1.00;;;;;;5156766;27;20450;-62
2024/02/27 02:52:39;;;;;;;29.53;23.60;;;5.20;99.90;;;;;;5157398;27;20510;-62
2024/02/27 02:55:09;;;;;;;33.10;26.37;;;5.20;99.90;;;;;;5156813;27;20656;-63
2024/02/27 02:57:38;;;;;;;30.67;25.67;;;5.20;99.90;;;;;;5157403;27;20460;-62
2024/02/27 03:00:07;;;;;;;27.03;23.27;;;5.10;99.90;;;;;;5156513;27;21134;-62
2024/02/27 03:02:35;;;;;;;30.23;24.27;;;5.20;1.00;;;;;;5158959;27;20759;-62
2024/02/27 03:05:03;;;;;;;32.17;24.70;;;5.20;1.00;;;;;;5158785;27;20489;-62
2024/02/27 03:07:30;;;;;;;31.13;26.17;;;5.20;1.00;;;;;;5157527;27;20464;-62
2024/02/27 03:09:57;;;;;;;31.30;25.37;;;5.20;1.00;;;;;;5156341;27;20545;-62
2024/02/27 03:12:26;;;;;;;30.17;25.37;;;5.20;1.00;;;;;;5157124;27;20548;-62
2024/02/27 03:14:53;;;;;;;32.50;25.43;;;5.20;1.00;;;;;;5160746;27;20506;-62
2024/02/27 03:17:20;;;;;;;32.00;25.20;;;5.10;1.00;;;;;;5161094;27;20544;-62
2024/02/27 03:19:48;;;;;;;31.60;25.57;;;5.10;99.90;;;;;;5161322;27;20496;-62
2024/02/27 03:22:15;;;;;;;30.23;25.30;;;5.00;1.00;;;;;;5161900;27;20485;-62
2024/02/27 03:24:44;;;;;;;34.27;26.87;;;5.00;1.00;;;;;;5162486;27;20495;-62
2024/02/27 03:27:11;;;;;;;36.70;26.83;;;5.10;1.00;;;;;;5162298;27;20491;-62
2024/02/27 03:29:39;;;;;;;32.57;25.50;;;5.10;1.00;;;;;;5162720;27;20472;-62
2024/02/27 03:32:07;;;;;;;33.67;27.90;;;5.00;1.00;;;;;;5162144;27;20874;-62
2024/02/27 03:34:34;;;;;;;31.77;25.13;;;5.10;1.00;;;;;;5162730;27;20450;-63
2024/02/27 03:37:02;;;;;;;30.80;25.43;;;5.10;1.00;;;;;;5162232;27;20454;-62
2024/02/27 03:39:29;;;;;;;33.07;26.97;;;5.00;1.00;;;;;;5161707;27;20460;-62
2024/02/27 03:41:56;;;;;;;34.40;26.47;;;5.10;1.00;;;;;;5162447;27;20967;-62
2024/02/27 03:44:24;;;;;;;31.30;23.37;;;5.00;1.00;;;;;;5162010;27;20934;-62
2024/02/27 03:46:53;;;;;;;32.23;26.07;;;5.10;1.00;;;;;;5162147;27;20930;-63
2024/02/27 03:49:20;;;;;;;32.50;26.33;;;5.00;1.00;;;;;;5162421;27;20464;-62
2024/02/27 03:51:47;;;;;;;33.40;25.13;;;5.00;1.00;;;;;;5162113;27;20511;-62
2024/02/27 03:54:14;;;;;;;37.20;27.40;;;5.00;1.00;;;;;;5161668;27;20505;-62
2024/02/27 03:56:41;;;;;;;32.57;26.77;;;5.00;1.00;;;;;;5161982;27;20544;-62
2024/02/27 03:59:11;;;;;;;33.23;26.97;;;5.00;1.00;;;;;;5162194;27;20453;-62
2024/02/27 04:01:38;;;;;;;31.77;25.83;;;5.00;1.00;;;;;;5162121;27;20879;-62
2024/02/27 04:04:07;;;;;;;34.60;26.87;;;5.00;99.90;;;;;;5160023;27;20576;-62
2024/02/27 04:06:34;;;;;;;35.57;28.53;;;5.00;99.90;;;;;;5160238;27;20463;-62
2024/02/27 04:09:02;;;;;;;33.60;25.97;;;5.00;99.90;;;;;;5160010;27;20476;-62
2024/02/27 04:11:29;;;;;;;33.50;25.30;;;4.90;99.90;;;;;;5160006;27;20462;-62
2024/02/27 04:13:56;;;;;;;31.60;26.07;;;4.90;99.90;;;;;;5160394;27;20454;-62
2024/02/27 04:16:24;;;;;;;32.90;25.73;;;4.90;99.90;;;;;;5160077;27;20453;-62
2024/02/27 04:18:52;;;;;;;34.20;25.53;;;4.90;99.90;;;;;;5160264;27;20536;-61
2024/02/27 04:21:21;;;;;;;32.90;26.13;;;4.90;99.90;;;;;;5160639;27;20475;-62
2024/02/27 04:23:48;;;;;;;31.13;26.00;;;4.90;99.90;;;;;;5142356;27;20572;-62
2024/02/27 04:26:15;;;;;;;34.13;27.30;;;4.90;99.90;;;;;;5158552;27;20548;-62
2024/02/27 04:28:42;;;;;;;36.27;26.63;;;4.90;99.90;;;;;;5159615;27;20767;-62
2024/02/27 04:31:10;;;;;;;34.90;27.47;;;4.90;99.90;;;;;;5159855;27;20548;-62
2024/02/27 04:33:37;;;;;;;34.00;26.00;;;4.90;99.90;;;;;;5159860;27;20953;-62
2024/02/27 04:36:08;;;;;;;34.27;27.20;;;4.90;99.90;;;;;;5159681;27;20460;-62
2024/02/27 04:38:36;;;;;;;33.60;27.27;;;4.80;99.90;;;;;;5159704;27;20755;-62
2024/02/27 04:41:04;;;;;;;35.07;26.63;;;4.80;99.90;;;;;;5160811;27;20746;-62
2024/02/27 04:43:31;;;;;;;33.23;26.07;;;4.80;99.90;;;;;;5161468;27;20453;-61
2024/02/27 04:45:58;;;;;;;34.60;27.97;;;4.80;99.90;;;;;;5161305;27;20489;-62
2024/02/27 04:48:27;;;;;;;36.47;28.80;;;4.80;1.00;;;;;;5160733;27;20483;-61
2024/02/27 04:50:54;;;;;;;34.77;26.40;;;4.80;99.90;;;;;;5056811;27;20771;-62
2024/02/27 04:53:21;;;;;;;36.53;28.90;;;4.80;1.00;;;;;;5055956;28;20556;-62
2024/02/27 04:55:50;;;;;;;34.50;25.93;;;4.80;1.00;;;;;;5056165;28;20494;-62
2024/02/27 04:58:17;;;;;;;34.33;27.63;;;4.80;1.00;;;;;;5055559;28;20922;-61
2024/02/27 05:00:45;;;;;;;35.07;27.77;;;4.80;1.00;;;;;;5055414;28;20466;-62
2024/02/27 05:03:12;;;;;;;35.73;28.57;;;4.80;1.00;;;;;;5055666;28;20462;-62
2024/02/27 05:05:42;;;;;;;38.23;27.53;;;4.80;1.00;;;;;;5055872;28;20494;-62
2024/02/27 05:08:09;;;;;;;33.13;26.30;;;4.80;1.00;;;;;;5055335;28;20473;-61
2024/02/27 05:10:36;;;;;;;40.17;28.80;;;4.80;1.00;;;;;;5055658;28;20458;-62
2024/02/27 05:13:05;;;;;;;34.60;27.90;;;4.80;1.00;;;;;;5054585;28;20798;-61
2024/02/27 05:15:32;;;;;;;35.03;26.93;;;4.80;1.00;;;;;;5055414;28;20515;-61
2024/02/27 05:18:00;;;;;;;34.40;27.70;;;4.80;1.00;;;;;;5055173;28;20524;-61
2024/02/27 05:20:28;;;;;;;35.77;27.43;;;4.80;1.00;;;;;;5054829;28;20895;-62
2024/02/27 05:22:55;;;;;;;37.30;28.53;;;4.80;4.40;;;;;;5055407;28;20464;-62
2024/02/27 05:25:22;;;;;;;42.67;29.80;;;4.80;1.00;;;;;;5055205;28;20522;-62
2024/02/27 05:27:49;;;;;;;36.60;27.47;;;4.70;1.00;;;;;;5055595;28;20548;-61
2024/02/27 05:30:18;;;;;;;37.10;28.37;;;4.70;1.00;;;;;;5055139;28;20462;-61
2024/02/27 05:32:46;;;;;;;34.80;27.40;;;4.70;1.00;;;;;;5054170;28;20553;-61
2024/02/27 05:35:13;;;;;;;33.40;26.93;;;4.70;1.00;;;;;;5053875;28;20499;-61
2024/02/27 05:37:40;;;;;;;34.50;28.20;;;4.70;21.90;;;;;;5054040;28;20505;-62
2024/02/27 05:40:10;;;;;;;37.17;26.60;;;4.70;1.00;;;;;;5054288;28;20462;-61
2024/02/27 05:42:38;;;;;;;37.10;29.90;;;4.70;99.90;;;;;;5053910;28;20545;-62
2024/02/27 05:45:05;;;;;;;33.53;26.67;;;4.60;1.00;;;;;;5034870;28;20491;-62
2024/02/27 05:47:34;;;;;;;37.23;27.90;;;4.70;99.90;;;;;;5034701;28;20502;-62
2024/02/27 05:50:02;;;;;;;36.30;26.60;;;4.70;99.90;;;;;;5035564;28;20466;-62
2024/02/27 05:52:30;;;;;;;35.90;26.80;;;4.70;99.90;;;;;;5034708;28;20503;-62
2024/02/27 05:54:57;;;;;;;35.07;27.77;;;4.70;99.90;;;;;;5034865;28;20479;-62
2024/02/27 05:57:24;;;;;;;36.40;28.77;;;4.70;99.90;;;;;;5035187;28;20478;-62
2024/02/27 05:59:52;;;;;;;33.33;27.10;;;4.70;95.50;;;;;;5035129;28;20459;-61
2024/02/27 06:02:19;;;;;;;34.33;28.97;;;4.70;99.90;;;;;;5034849;28;20516;-61
2024/02/27 06:04:48;;;;;;;36.07;29.57;;;4.70;99.90;;;;;;5034953;28;20544;-61
2024/02/27 06:07:16;;;;;;;36.77;28.20;;;4.70;99.90;;;;;;5034953;28;20495;-62
2024/02/27 06:09:43;;;;;;;35.53;29.43;;;4.80;99.90;;;;;;5034868;28;20464;-62
2024/02/27 06:12:11;;;;;;;35.90;27.30;;;4.80;99.90;;;;;;5034676;28;20545;-62
2024/02/27 06:14:38;;;;;;;34.73;26.57;;;4.80;50.20;;;;;;5035469;28;20458;-66
2024/02/27 06:17:06;;;;;;;35.00;28.20;;;4.80;1.00;;;;;;5036436;28;20557;-66
2024/02/27 06:19:33;;;;;;;35.60;28.50;;;4.80;1.00;;;;;;5036449;28;20459;-66
2024/02/27 06:22:15;;;;;;;36.37;27.87;;;4.70;10.60;;;;;;5047494;28;20458;-65
2024/02/27 06:24:43;;;;;;;36.20;28.00;;;4.70;1.00;;;;;;5056757;28;20793;-66
2024/02/27 06:27:11;;;;;;;37.47;28.73;;;4.70;1.00;;;;;;5057159;28;20458;-66
2024/02/27 06:29:41;;;;;;;35.40;28.57;;;4.70;8.10;;;;;;5055576;28;20458;-66
2024/02/27 06:32:10;;;;;;;38.13;29.50;;;4.70;99.90;;;;;;5055021;28;20831;-66
2024/02/27 06:34:38;;;;;;;36.83;28.30;;;4.70;99.90;;;;;;5056090;28;20556;-66
2024/02/27 06:37:07;;;;;;;35.73;28.60;;;4.70;99.90;;;;;;5057364;28;20757;-65
2024/02/27 06:39:34;;;;;;;38.00;27.87;;;4.70;99.90;;;;;;5055687;28;20489;-66
2024/02/27 06:42:01;;;;;;;36.20;27.93;;;4.80;99.90;;;;;;5058155;28;20485;-66
2024/02/27 06:44:29;;;;;;;36.17;28.70;;;4.70;8.00;;;;;;5055190;28;20461;-66
2024/02/27 06:46:56;;;;;;;36.87;28.93;;;4.70;15.70;;;;;;5056941;28;20489;-66
2024/02/27 06:49:23;;;;;;;35.37;27.60;;;4.60;99.90;;;;;;5064490;28;20469;-66
2024/02/27 06:51:51;;;;;;;39.53;28.93;;;4.60;99.90;;;;;;5063835;28;20458;-66
2024/02/27 06:54:20;;;;;;;35.93;27.43;;;4.70;99.90;;;;;;5064340;28;20581;-66
2024/02/27 06:56:49;;;;;;;34.53;27.50;;;4.70;99.90;;;;;;5064523;28;20549;-66
2024/02/27 06:59:16;;;;;;;39.87;29.47;;;4.70;99.90;;;;;;5065297;28;20462;-65
2024/02/27 07:01:44;;;;;;;34.77;26.70;;;4.70;99.90;;;;;;5064927;28;20465;-66
2024/02/27 07:04:13;;;;;;;35.90;28.60;;;4.80;99.90;;;;;;5061901;28;20804;-65
2024/02/27 07:06:40;;;;;;;37.60;28.13;;;4.70;11.70;;;;;;5063127;28;20778;-66
2024/02/27 07:09:09;;;;;;;36.37;29.13;;;4.80;99.90;;;;;;5063091;28;20558;-65
2024/02/27 07:11:38;;;;;;;35.53;27.83;;;4.80;67.90;;;;;;5063124;28;20462;-66
2024/02/27 07:14:05;;;;;;;36.00;28.37;;;4.80;40.40;;;;;;5064638;28;20450;-66
2024/02/27 07:16:33;;;;;;;35.00;28.60;;;4.70;1.00;;;;;;5064320;28;20458;-66
2024/02/27 07:19:00;;;;;;;35.27;29.37;;;4.70;9.40;;;;;;5064753;28;20510;-66
2024/02/27 07:21:29;;;;;;;39.13;28.57;;;4.80;81.30;;;;;;5063443;28;20433;-66
2024/02/27 07:23:56;;;;;;;38.23;29.53;;;4.90;99.90;;;;;;5063804;28;20494;-66
2024/02/27 07:26:24;;;;;;;35.17;27.70;;;4.90;1.00;;;;;;5064815;28;20518;-66
2024/02/27 07:28:53;;;;;;;37.30;27.20;;;4.90;1.00;;;;;;5064003;28;20458;-66
2024/02/27 07:31:21;;;;;;;34.23;27.47;;;5.10;1.00;;;;;;5066248;28;20493;-66
2024/02/27 07:33:47;;;;;;;35.57;28.57;;;5.00;1.00;;;;;;5064217;28;20462;-66
2024/02/27 07:36:15;;;;;;;37.73;28.73;;;5.10;99.90;;;;;;5065914;28;20887;-66
2024/02/27 07:38:42;;;;;;;33.60;25.90;;;5.10;99.90;;;;;;5066284;28;20494;-66
2024/02/27 07:41:10;;;;;;;32.60;26.40;;;5.10;99.90;;;;;;5066497;28;20602;-66
2024/02/27 07:43:38;;;;;;;32.87;26.27;;;5.20;99.90;;;;;;5066472;28;20544;-67
2024/02/27 07:46:07;;;;;;;33.20;26.20;;;5.10;1.00;;;;;;5064499;28;20532;-66
2024/02/27 07:48:34;;;;;;;31.23;25.10;;;5.10;1.00;;;;;;5068570;28;20526;-66
2024/02/27 07:51:02;;;;;;;31.30;25.57;;;5.20;1.00;;;;;;5067171;28;20553;-66
2024/02/27 07:53:29;;;;;;;31.90;26.00;;;5.30;1.00;;;;;;5067216;28;20552;-67
2024/02/27 07:55:57;;;;;;;30.13;25.20;;;5.40;1.00;;;;;;5065153;28;20457;-66
2024/02/27 07:58:24;;;;;;;32.03;25.47;;;5.50;99.90;;;;;;5065079;28;20556;-66
2024/02/27 08:00:52;;;;;;;31.40;25.73;;;5.50;99.90;;;;;;5061223;28;20812;-66
2024/02/27 08:03:22;;;;;;;31.40;25.63;;;5.50;99.90;;;;;;5062064;28;20462;-67
2024/02/27 08:05:50;;;;;;;29.70;22.57;;;5.60;99.90;;;;;;5060154;27;20481;-69
2024/02/27 08:08:17;;;;;;;29.07;23.77;;;5.60;99.90;;;;;;5149016;27;20461;-66
2024/02/27 08:10:44;;;;;;;29.23;23.87;;;5.60;99.90;;;;;;5164914;27;20482;-66
2024/02/27 08:13:12;;;;;;;33.10;24.83;;;5.60;1.00;;;;;;5166012;27;20464;-66
2024/02/27 08:15:39;;;;;;;30.07;23.73;;;5.60;1.00;;;;;;5167192;27;20943;-67
2024/02/27 08:18:06;;;;;;;29.70;23.10;;;5.60;99.90;;;;;;5166871;27;20453;-66
2024/02/27 08:20:35;;;;;;;29.13;23.40;;;5.60;99.90;;;;;;5166589;27;20458;-66
2024/02/27 08:23:02;;;;;;;31.97;23.97;;;5.60;90.70;;;;;;5166709;27;20453;-67
2024/02/27 08:25:30;;;;;;;31.00;23.87;;;5.60;1.00;;;;;;5166323;27;20477;-66
2024/02/27 08:27:57;;;;;;;32.90;25.03;;;5.60;1.00;;;;;;5164916;27;20506;-67
2024/02/27 08:30:25;;;;;;;26.93;22.70;;;5.50;1.00;;;;;;5162957;27;20453;-66
2024/02/27 08:32:52;;;;;;;28.53;22.80;;;5.60;1.00;;;;;;5163431;27;20576;-66
2024/02/27 08:35:20;;;;;;;29.80;23.87;;;5.60;1.00;;;;;;5108786;27;20462;-66
2024/02/27 08:37:49;;;;;;;28.30;22.40;;;5.70;1.00;;;;;;5059043;28;20613;-67
2024/02/27 08:40:17;;;;;;;27.80;22.60;;;5.70;99.90;;;;;;5060218;28;20475;-67
2024/02/27 08:42:44;;;;;;;31.20;22.97;;;5.50;1.00;;;;;;5061568;28;20462;-67
2024/02/27 08:45:12;;;;;;;28.93;23.27;;;5.50;1.00;;;;;;5060557;28;20467;-66
2024/02/27 08:47:39;;;;;;;27.17;22.60;;;5.60;1.00;;;;;;5061070;28;20433;-68
2024/02/27 08:50:07;;;;;;;25.50;20.80;;;5.60;99.90;;;;;;5063143;28;20465;-69
2024/02/27 08:52:35;;;;;;;32.73;23.20;;;5.60;99.90;;;;;;5061878;28;20459;-67
2024/02/27 08:55:04;;;;;;;28.50;22.83;;;5.60;99.90;;;;;;5060683;28;20487;-67
2024/02/27 08:57:31;;;;;;;26.33;21.63;;;5.70;99.90;;;;;;5061642;28;20501;-66
2024/02/27 08:59:58;;;;;;;27.30;21.97;;;5.80;99.90;;;;;;5065605;28;20875;-67
2024/02/27 09:02:25;;;;;;;27.60;22.70;;;6.00;99.90;;;;;;5064249;28;20458;-67
2024/02/27 09:04:53;;;;;;;26.47;22.37;;;6.00;99.90;;;;;;5062754;28;20454;-66
2024/02/27 09:07:20;;;;;;;29.93;22.87;;;6.00;99.90;;;;;;5062189;28;20486;-66
2024/02/27 09:09:48;;;;;;;24.43;21.70;;;5.90;99.90;;;;;;5061344;28;20473;-67
2024/02/27 09:12:17;;;;;;;30.40;24.17;;;5.90;99.90;;;;;;5063972;28;20462;-67
2024/02/27 09:14:44;;;;;;;29.53;24.67;;;5.80;99.90;;;;;;5066900;28;20464;-67
2024/02/27 09:17:12;;;;;;;28.40;23.00;;;5.90;99.90;;;;;;5065821;28;20469;-67
2024/02/27 09:19:39;;;;;;;27.83;21.70;;;5.80;99.90;;;;;;5063916;28;20510;-67
2024/02/27 09:22:06;;;;;;;25.90;21.80;;;5.70;99.90;;;;;;5064028;28;20879;-67
2024/02/27 09:24:33;;;;;;;25.80;20.60;;;5.70;99.90;;;;;;5061777;28;20515;-67
2024/02/27 09:27:01;;;;;;;27.57;22.60;;;5.70;99.90;;;;;;5059659;28;20494;-67
2024/02/27 09:29:30;;;;;;;27.77;22.40;;;5.70;1.00;;;;;;5061621;28;20899;-67
2024/02/27 09:31:57;;;;;;;29.47;25.13;;;5.70;99.90;;;;;;5061306;28;20887;-67
2024/02/27 09:34:24;;;;;;;32.03;24.30;;;5.70;99.90;;;;;;5058735;28;20568;-64
2024/02/27 09:36:53;;;;;;;27.70;21.90;;;5.90;99.90;;;;;;5056652;28;20490;-64
2024/02/27 09:39:21;;;;;;;25.30;21.13;;;6.10;99.90;;;;;;5057144;28;20470;-64
2024/02/27 09:41:56;;;;;;;23.73;18.73;;;6.40;1.00;;;;;;5057085;28;20466;-64
2024/02/27 09:44:23;;;;;;;23.90;20.07;;;6.40;56.80;;;;;;5056570;28;20494;-64
2024/02/27 09:46:53;;;;;;;24.67;20.00;;;6.40;1.00;;;;;;5056332;28;20498;-64
2024/02/27 09:49:22;;;;;;;24.90;20.87;;;6.40;1.00;;;;;;5057170;28;20879;-64
2024/02/27 09:51:52;;;;;;;23.57;19.80;;;6.40;1.00;;;;;;5056294;28;20492;-64
2024/02/27 09:54:20;;;;;;;24.13;20.10;;;6.30;1.00;;;;;;5055269;28;20493;-64
2024/02/27 09:56:49;;;;;;;21.60;19.30;;;6.50;1.00;;;;;;5055526;28;20459;-64
2024/02/27 09:59:16;;;;;;;23.30;20.73;;;6.50;1.00;;;;;;5056607;28;20458;-67
2024/02/27 10:01:48;;;;;;;25.23;19.97;;;6.60;1.00;;;;;;5056568;28;20484;-67
2024/02/27 10:04:19;;;;;;;23.37;20.43;;;6.70;1.00;;;;;;5057007;28;20755;-67
2024/02/27 10:06:49;;;;;;;31.20;20.47;;;6.60;44.40;;;;;;5057468;28;20619;-67
2024/02/27 10:09:19;;;;;;;24.77;21.20;;;6.60;1.00;;;;;;5057396;28;20458;-67
2024/02/27 10:11:47;;;;;;;25.53;21.53;;;6.70;1.00;;;;;;5056308;28;20459;-69
2024/02/27 10:14:29;;;;;;;22.60;19.53;;;6.50;1.00;;;;;;5057478;28;20515;-67
2024/02/27 10:16:57;;;;;;;23.20;19.23;;;6.50;1.00;;;;;;5056847;28;20534;-68
2024/02/27 10:19:28;;;;;;;24.37;19.90;;;6.80;1.00;;;;;;5056048;28;20549;-68
2024/02/27 10:21:56;;;;;;;25.83;20.80;;;6.80;1.00;;;;;;5055389;28;20466;-68
2024/02/27 10:24:24;;;;;;;21.07;18.17;;;6.80;1.00;;;;;;5053714;28;20459;-67
2024/02/27 10:26:53;;;;;;;24.30;19.83;;;6.70;1.00;;;;;;5054254;28;20836;-68
2024/02/27 10:29:21;;;;;;;20.40;18.20;;;6.70;1.00;;;;;;5055599;28;20458;-67
2024/02/27 10:31:50;;;;;;;27.40;20.60;;;6.80;1.00;;;;;;5062892;28;20465;-66
2024/02/27 10:34:17;;;;;;;22.30;19.00;;;7.00;1.00;;;;;;5061599;28;20466;-66
2024/02/27 10:36:46;;;;;;;21.17;18.20;;;7.40;1.00;;;;;;5069143;28;20478;-67
2024/02/27 10:39:13;;;;;;;22.80;17.80;;;7.60;1.00;;;;;;5041352;28;20467;-67
2024/02/27 10:41:41;;;;;;;21.30;19.00;;;7.70;99.90;;;;;;5040607;28;20516;-67
2024/02/27 10:44:09;;;;;;;21.00;16.60;;;8.00;1.00;;;;;;5042885;28;20467;-67
2024/02/27 10:46:37;;;;;;;24.03;18.90;;;8.20;99.90;;;;;;5041679;28;20497;-67
2024/02/27 10:49:04;;;;;;;20.10;17.60;;;8.40;99.90;;;;;;5039304;28;20466;-67
2024/02/27 10:51:32;;;;;;;23.73;19.30;;;8.70;99.90;;;;;;5035738;28;20566;-68
2024/02/27 10:54:01;;;;;;;22.70;19.37;;;8.60;99.90;;;;;;5036055;28;20528;-67
2024/02/27 10:56:28;;;;;;;21.33;18.60;;;8.10;99.90;;;;;;5036648;28;20456;-67
2024/02/27 10:58:56;;;;;;;31.07;20.90;;;8.40;99.90;;;;;;5035497;28;20467;-67
2024/02/27 11:01:24;;;;;;;24.00;20.10;;;8.20;73.50;;;;;;5036499;28;20499;-67
2024/02/27 11:03:53;;;;;;;23.43;19.93;;;7.40;99.90;;;;;;5041498;28;20463;-67
2024/02/27 11:06:24;;;;;;;21.80;19.47;;;7.10;1.00;;;;;;5043875;28;20494;-67
2024/02/27 11:08:56;;;;;;;22.33;19.43;;;7.40;1.00;;;;;;5045701;28;20467;-67
2024/02/27 11:11:26;;;;;;;24.87;18.93;;;7.90;1.00;;;;;;5042144;28;20471;-67
2024/02/27 11:13:54;;;;;;;22.50;18.37;;;8.20;1.00;;;;;;5038836;28;20493;-68
2024/02/27 11:16:23;;;;;;;24.73;20.87;;;8.20;59.10;;;;;;5040345;28;20847;-66
2024/02/27 11:18:54;;;;;;;22.47;18.10;;;8.20;99.90;;;;;;5040982;28;20459;-67
2024/02/27 11:21:23;;;;;;;21.70;17.53;;;8.20;99.90;;;;;;5038620;28;20489;-67
2024/02/27 11:23:51;;;;;;;21.27;18.57;;;7.90;99.90;;;;;;5043091;28;20803;-67
2024/02/27 11:26:19;;;;;;;20.97;18.43;;;7.90;99.90;;;;;;5047995;28;20577;-67
2024/02/27 11:28:50;;;;;;;20.50;17.30;;;7.90;99.90;;;;;;5055050;28;20471;-67
2024/02/27 11:31:20;;;;;;;22.13;19.03;;;7.90;99.90;;;;;;5046250;28;20484;-66
2024/02/27 11:33:49;;;;;;;23.23;18.23;;;7.80;99.90;;;;;;5046783;28;20534;-68
2024/02/27 11:36:16;;;;;;;24.27;19.17;;;7.80;99.90;;;;;;5049472;28;20482;-66
2024/02/27 11:38:44;;;;;;;20.50;17.97;;;7.70;1.00;;;;;;5051413;28;20474;-66
2024/02/27 11:41:17;;;;;;;20.60;16.93;;;8.00;1.00;;;;;;5049192;28;20463;-67
2024/02/27 11:43:46;;;;;;;18.73;16.80;;;8.40;99.90;;;;;;5050752;28;20728;-67
2024/02/27 11:46:36;;;;;;;19.33;17.20;;;8.70;99.90;;;;;;5048262;28;20516;-68
2024/02/27 11:49:04;;;;;;;18.77;16.77;;;8.80;1.00;;;;;;5049626;28;20454;-66
2024/02/27 11:51:33;;;;;;;18.30;16.27;;;9.00;99.90;;;;;;5048485;28;20538;-67
2024/02/27 11:54:01;;;;;;;18.03;16.13;;;9.30;1.00;;;;;;5044932;28;20972;-68
2024/02/27 11:56:28;;;;;;;21.30;17.60;;;9.30;99.90;;;;;;5042734;28;20497;-67
2024/02/27 11:58:56;;;;;;;19.87;17.73;;;9.40;99.90;;;;;;5057209;28;20454;-67
2024/02/27 12:01:23;;;;;;;19.87;16.77;;;9.10;1.00;;;;;;5064173;28;20510;-67
2024/02/27 12:03:52;;;;;;;18.60;15.57;;;9.50;1.00;;;;;;5062859;28;20465;-68
2024/02/27 12:06:19;;;;;;;21.40;16.70;;;10.10;99.90;;;;;;5062925;28;20494;-67
2024/02/27 12:08:48;;;;;;;20.17;18.07;;;10.60;94.90;;;;;;5063554;28;20458;-67
2024/02/27 12:11:16;;;;;;;20.87;18.30;;;10.90;1.00;;;;;;5064472;28;20959;-67
2024/02/27 12:13:46;;;;;;;19.90;17.80;;;10.70;99.90;;;;;;5066055;28;20466;-67
2024/02/27 12:16:22;;;;;;;18.37;16.47;;;10.50;99.90;;;;;;5064545;28;20510;-67
2024/02/27 12:18:51;;;;;;;20.40;18.20;;;10.40;1.00;;;;;;5063297;28;20959;-66
2024/02/27 12:21:28;;;;;;;20.67;17.73;;;10.50;1.00;;;;;;5063888;28;20458;-67
2024/02/27 12:24:13;;;;;;;19.70;17.60;;;10.50;99.90;;;;;;5064098;28;20867;-67
2024/02/27 12:26:40;;;;;;;20.13;18.13;;;10.20;99.90;;;;;;5066749;28;20553;-67
2024/02/27 12:29:09;;;;;;;18.73;16.73;;;9.80;1.00;;;;;;5066874;28;20506;-67
2024/02/27 12:31:37;;;;;;;20.13;18.03;;;9.10;47.90;;;;;;5068112;28;20742;-66
2024/02/27 12:34:07;;;;;;;21.23;19.00;;;8.70;99.90;;;;;;5058260;28;20529;-67
2024/02/27 12:36:34;;;;;;;21.10;18.80;;;8.60;99.90;;;;;;5047214;28;20487;-67
2024/02/27 12:39:02;;;;;;;20.57;18.37;;;8.30;99.90;;;;;;5050700;28;20451;-66
2024/02/27 12:41:30;;;;;;;21.67;18.30;;;7.90;99.90;;;;;;5040713;28;20768;-67
2024/02/27 12:43:58;;;;;;;21.73;18.40;;;8.10;1.00;;;;;;5034744;28;20463;-65
2024/02/27 12:46:26;;;;;;;20.87;17.97;;;8.10;99.90;;;;;;5034408;28;20456;-66